sensor_id;sensor_type;location;lat;lon;timestamp;P1;durP1;ratioP1;P2;durP2;ratioP2
69841;SDS011;57138;51.326;-0.068;2022-09-30T00:01:47;13.10;;;6.70;;
69841;SDS011;57138;51.326;-0.068;2022-09-30T00:04:16;10.50;;;5.70;;
69841;SDS011;57138;51.326;-0.068;2022-09-30T00:06:44;12.27;;;6.30;;
69841;SDS011;57138;51.326;-0.068;2022-09-30T00:09:11;11.60;;;6.30;;
69841;SDS011;57138;51.326;-0.068;2022-09-30T00:11:40;11.77;;;6.70;;
69841;SDS011;57138;51.326;-0.068;2022-09-30T00:14:14;9.73;;;5.60;;
69841;SDS011;57138;51.326;-0.068;2022-09-30T00:16:44;11.68;;;5.50;;
69841;SDS011;57138;51.326;-0.068;2022-09-30T00:19:10;9.93;;;5.90;;
69841;SDS011;57138;51.326;-0.068;2022-09-30T00:21:40;9.88;;;5.50;;
69841;SDS011;57138;51.326;-0.068;2022-09-30T00:24:06;11.27;;;5.93;;
69841;SDS011;57138;51.326;-0.068;2022-09-30T00:26:32;15.55;;;5.90;;
69841;SDS011;57138;51.326;-0.068;2022-09-30T00:28:59;11.75;;;6.50;;
69841;SDS011;57138;51.326;-0.068;2022-09-30T00:31:27;12.75;;;6.07;;
69841;SDS011;57138;51.326;-0.068;2022-09-30T00:33:54;11.13;;;5.97;;
69841;SDS011;57138;51.326;-0.068;2022-09-30T00:36:36;12.02;;;5.75;;
69841;SDS011;57138;51.326;-0.068;2022-09-30T00:39:21;11.27;;;6.35;;
69841;SDS011;57138;51.326;-0.068;2022-09-30T00:42:00;8.95;;;6.10;;
69841;SDS011;57138;51.326;-0.068;2022-09-30T00:53:00;11.50;;;6.32;;
69841;SDS011;57138;51.326;-0.068;2022-09-30T00:55:53;12.07;;;6.03;;
69841;SDS011;57138;51.326;-0.068;2022-09-30T00:58:45;12.77;;;7.85;;
69841;SDS011;57138;51.326;-0.068;2022-09-30T01:01:08;9.10;;;5.50;;
69841;SDS011;57138;51.326;-0.068;2022-09-30T01:03:35;9.13;;;5.88;;
69841;SDS011;57138;51.326;-0.068;2022-09-30T01:06:22;11.10;;;6.70;;
69841;SDS011;57138;51.326;-0.068;2022-09-30T01:08:48;20.85;;;6.40;;
69841;SDS011;57138;51.326;-0.068;2022-09-30T01:11:14;10.23;;;6.50;;
69841;SDS011;57138;51.326;-0.068;2022-09-30T01:13:40;12.13;;;6.43;;
69841;SDS011;57138;51.326;-0.068;2022-09-30T01:16:17;14.85;;;7.32;;
69841;SDS011;57138;51.326;-0.068;2022-09-30T01:35:53;10.82;;;7.05;;
69841;SDS011;57138;51.326;-0.068;2022-09-30T01:38:25;14.65;;;6.63;;
69841;SDS011;57138;51.326;-0.068;2022-09-30T01:43:43;13.90;;;6.30;;
69841;SDS011;57138;51.326;-0.068;2022-09-30T01:46:24;11.50;;;6.28;;
69841;SDS011;57138;51.326;-0.068;2022-09-30T01:49:41;14.13;;;6.65;;
69841;SDS011;57138;51.326;-0.068;2022-09-30T01:52:06;14.65;;;6.72;;
69841;SDS011;57138;51.326;-0.068;2022-09-30T01:54:46;13.70;;;7.95;;
69841;SDS011;57138;51.326;-0.068;2022-09-30T01:57:32;14.15;;;7.70;;
69841;SDS011;57138;51.326;-0.068;2022-09-30T02:00:09;16.27;;;7.18;;
69841;SDS011;57138;51.326;-0.068;2022-09-30T02:05:19;14.55;;;8.00;;
69841;SDS011;57138;51.326;-0.068;2022-09-30T02:07:53;11.27;;;8.23;;
69841;SDS011;57138;51.326;-0.068;2022-09-30T02:10:33;15.05;;;8.43;;
69841;SDS011;57138;51.326;-0.068;2022-09-30T02:13:08;12.18;;;7.40;;
69841;SDS011;57138;51.326;-0.068;2022-09-30T02:15:40;12.45;;;7.18;;
69841;SDS011;57138;51.326;-0.068;2022-09-30T02:18:14;13.88;;;7.30;;
69841;SDS011;57138;51.326;-0.068;2022-09-30T02:20:44;13.60;;;9.07;;
69841;SDS011;57138;51.326;-0.068;2022-09-30T02:23:15;13.85;;;8.18;;
69841;SDS011;57138;51.326;-0.068;2022-09-30T02:25:46;12.32;;;7.75;;
69841;SDS011;57138;51.326;-0.068;2022-09-30T02:28:19;15.90;;;8.90;;
69841;SDS011;57138;51.326;-0.068;2022-09-30T02:30:53;13.25;;;8.82;;
69841;SDS011;57138;51.326;-0.068;2022-09-30T02:33:26;15.88;;;8.90;;
69841;SDS011;57138;51.326;-0.068;2022-09-30T02:36:07;12.20;;;7.63;;
69841;SDS011;57138;51.326;-0.068;2022-09-30T02:38:39;15.30;;;8.93;;
69841;SDS011;57138;51.326;-0.068;2022-09-30T02:41:10;17.40;;;8.98;;
69841;SDS011;57138;51.326;-0.068;2022-09-30T02:43:39;12.07;;;8.48;;
69841;SDS011;57138;51.326;-0.068;2022-09-30T02:51:52;16.45;;;9.23;;
69841;SDS011;57138;51.326;-0.068;2022-09-30T02:57:47;21.15;;;8.52;;
69841;SDS011;57138;51.326;-0.068;2022-09-30T03:00:17;13.00;;;8.00;;
69841;SDS011;57138;51.326;-0.068;2022-09-30T03:02:43;15.63;;;9.07;;
69841;SDS011;57138;51.326;-0.068;2022-09-30T03:05:09;18.95;;;9.27;;
69841;SDS011;57138;51.326;-0.068;2022-09-30T03:07:35;18.20;;;10.18;;
69841;SDS011;57138;51.326;-0.068;2022-09-30T03:10:10;15.73;;;9.30;;
69841;SDS011;57138;51.326;-0.068;2022-09-30T03:12:40;16.30;;;9.32;;
69841;SDS011;57138;51.326;-0.068;2022-09-30T03:15:54;14.30;;;9.00;;
69841;SDS011;57138;51.326;-0.068;2022-09-30T03:18:44;16.95;;;10.40;;
69841;SDS011;57138;51.326;-0.068;2022-09-30T03:21:28;19.08;;;10.30;;
69841;SDS011;57138;51.326;-0.068;2022-09-30T03:27:23;20.02;;;10.15;;
69841;SDS011;57138;51.326;-0.068;2022-09-30T03:30:10;21.63;;;10.60;;
69841;SDS011;57138;51.326;-0.068;2022-09-30T03:32:51;17.38;;;10.45;;
69841;SDS011;57138;51.326;-0.068;2022-09-30T03:46:52;18.02;;;10.52;;
69841;SDS011;57138;51.326;-0.068;2022-09-30T03:49:22;15.98;;;10.25;;
69841;SDS011;57138;51.326;-0.068;2022-09-30T03:51:50;18.15;;;10.27;;
69841;SDS011;57138;51.326;-0.068;2022-09-30T03:54:17;20.98;;;10.20;;
69841;SDS011;57138;51.326;-0.068;2022-09-30T03:56:42;18.23;;;9.38;;
69841;SDS011;57138;51.326;-0.068;2022-09-30T03:59:09;16.70;;;10.05;;
69841;SDS011;57138;51.326;-0.068;2022-09-30T04:01:43;18.85;;;11.43;;
69841;SDS011;57138;51.326;-0.068;2022-09-30T04:04:09;15.95;;;9.80;;
69841;SDS011;57138;51.326;-0.068;2022-09-30T04:06:34;21.25;;;11.05;;
69841;SDS011;57138;51.326;-0.068;2022-09-30T04:09:00;17.33;;;10.18;;
69841;SDS011;57138;51.326;-0.068;2022-09-30T04:11:25;17.67;;;9.93;;
69841;SDS011;57138;51.326;-0.068;2022-09-30T04:13:51;18.98;;;11.07;;
69841;SDS011;57138;51.326;-0.068;2022-09-30T04:16:16;21.25;;;12.15;;
69841;SDS011;57138;51.326;-0.068;2022-09-30T04:18:41;18.55;;;11.95;;
69841;SDS011;57138;51.326;-0.068;2022-09-30T04:21:08;22.98;;;13.02;;
69841;SDS011;57138;51.326;-0.068;2022-09-30T04:23:36;24.85;;;13.68;;
69841;SDS011;57138;51.326;-0.068;2022-09-30T04:26:05;42.45;;;18.60;;
69841;SDS011;57138;51.326;-0.068;2022-09-30T04:28:32;39.72;;;17.40;;
69841;SDS011;57138;51.326;-0.068;2022-09-30T04:30:59;38.03;;;18.30;;
69841;SDS011;57138;51.326;-0.068;2022-09-30T04:33:25;32.78;;;15.90;;
69841;SDS011;57138;51.326;-0.068;2022-09-30T04:35:55;37.38;;;16.95;;
69841;SDS011;57138;51.326;-0.068;2022-09-30T04:38:21;36.95;;;16.63;;
69841;SDS011;57138;51.326;-0.068;2022-09-30T04:40:49;45.67;;;17.42;;
69841;SDS011;57138;51.326;-0.068;2022-09-30T04:43:15;53.70;;;16.98;;
69841;SDS011;57138;51.326;-0.068;2022-09-30T04:45:43;56.70;;;18.90;;
69841;SDS011;57138;51.326;-0.068;2022-09-30T04:48:09;49.90;;;16.95;;
69841;SDS011;57138;51.326;-0.068;2022-09-30T04:50:35;47.55;;;18.92;;
69841;SDS011;57138;51.326;-0.068;2022-09-30T04:53:01;51.38;;;19.60;;
69841;SDS011;57138;51.326;-0.068;2022-09-30T04:55:27;48.60;;;18.85;;
69841;SDS011;57138;51.326;-0.068;2022-09-30T04:57:53;46.63;;;18.17;;
69841;SDS011;57138;51.326;-0.068;2022-09-30T05:00:19;55.28;;;20.05;;
69841;SDS011;57138;51.326;-0.068;2022-09-30T05:02:45;41.65;;;17.02;;
69841;SDS011;57138;51.326;-0.068;2022-09-30T05:05:11;49.28;;;17.85;;
69841;SDS011;57138;51.326;-0.068;2022-09-30T05:07:36;61.95;;;19.95;;
69841;SDS011;57138;51.326;-0.068;2022-09-30T05:10:02;60.10;;;18.77;;
69841;SDS011;57138;51.326;-0.068;2022-09-30T05:12:28;67.85;;;19.50;;
69841;SDS011;57138;51.326;-0.068;2022-09-30T05:14:53;57.40;;;19.85;;
69841;SDS011;57138;51.326;-0.068;2022-09-30T05:17:19;57.40;;;18.35;;
69841;SDS011;57138;51.326;-0.068;2022-09-30T05:19:44;60.80;;;19.08;;
69841;SDS011;57138;51.326;-0.068;2022-09-30T05:22:10;68.55;;;18.95;;
69841;SDS011;57138;51.326;-0.068;2022-09-30T05:24:35;64.85;;;19.80;;
69841;SDS011;57138;51.326;-0.068;2022-09-30T05:27:01;87.50;;;20.65;;
69841;SDS011;57138;51.326;-0.068;2022-09-30T05:29:27;52.85;;;18.67;;
69841;SDS011;57138;51.326;-0.068;2022-09-30T05:31:52;72.00;;;20.27;;
69841;SDS011;57138;51.326;-0.068;2022-09-30T05:34:17;76.07;;;20.73;;
69841;SDS011;57138;51.326;-0.068;2022-09-30T05:36:43;154.77;;;22.95;;
69841;SDS011;57138;51.326;-0.068;2022-09-30T05:39:09;117.25;;;22.75;;
69841;SDS011;57138;51.326;-0.068;2022-09-30T05:41:35;97.20;;;22.48;;
69841;SDS011;57138;51.326;-0.068;2022-09-30T05:44:01;116.13;;;22.17;;
69841;SDS011;57138;51.326;-0.068;2022-09-30T05:46:27;187.43;;;24.30;;
69841;SDS011;57138;51.326;-0.068;2022-09-30T05:48:52;151.57;;;22.05;;
69841;SDS011;57138;51.326;-0.068;2022-09-30T05:51:18;123.93;;;23.95;;
69841;SDS011;57138;51.326;-0.068;2022-09-30T05:53:44;178.30;;;24.55;;
69841;SDS011;57138;51.326;-0.068;2022-09-30T05:56:10;140.32;;;25.08;;
69841;SDS011;57138;51.326;-0.068;2022-09-30T05:58:36;229.07;;;24.00;;
69841;SDS011;57138;51.326;-0.068;2022-09-30T06:01:05;376.70;;;34.63;;
69841;SDS011;57138;51.326;-0.068;2022-09-30T06:03:37;318.85;;;31.70;;
69841;SDS011;57138;51.326;-0.068;2022-09-30T06:06:04;225.43;;;24.48;;
69841;SDS011;57138;51.326;-0.068;2022-09-30T06:08:31;172.23;;;21.60;;
69841;SDS011;57138;51.326;-0.068;2022-09-30T06:10:56;184.63;;;22.00;;
69841;SDS011;57138;51.326;-0.068;2022-09-30T06:13:25;238.88;;;25.83;;
69841;SDS011;57138;51.326;-0.068;2022-09-30T06:15:58;341.80;;;30.25;;
69841;SDS011;57138;51.326;-0.068;2022-09-30T06:18:25;179.68;;;24.63;;
69841;SDS011;57138;51.326;-0.068;2022-09-30T06:20:54;185.90;;;22.98;;
69841;SDS011;57138;51.326;-0.068;2022-09-30T06:23:21;158.60;;;22.48;;
69841;SDS011;57138;51.326;-0.068;2022-09-30T06:25:50;220.80;;;29.58;;
69841;SDS011;57138;51.326;-0.068;2022-09-30T06:28:16;242.10;;;30.27;;
69841;SDS011;57138;51.326;-0.068;2022-09-30T06:30:42;158.23;;;26.65;;
69841;SDS011;57138;51.326;-0.068;2022-09-30T06:33:08;163.02;;;26.65;;
69841;SDS011;57138;51.326;-0.068;2022-09-30T06:35:34;105.05;;;23.30;;
69841;SDS011;57138;51.326;-0.068;2022-09-30T06:38:00;117.35;;;27.38;;
69841;SDS011;57138;51.326;-0.068;2022-09-30T06:40:26;109.97;;;25.65;;
69841;SDS011;57138;51.326;-0.068;2022-09-30T06:42:56;97.18;;;23.48;;
69841;SDS011;57138;51.326;-0.068;2022-09-30T06:45:23;95.45;;;23.92;;
69841;SDS011;57138;51.326;-0.068;2022-09-30T06:47:49;101.15;;;24.55;;
69841;SDS011;57138;51.326;-0.068;2022-09-30T06:50:16;107.38;;;25.23;;
69841;SDS011;57138;51.326;-0.068;2022-09-30T06:52:42;102.38;;;24.02;;
69841;SDS011;57138;51.326;-0.068;2022-09-30T06:55:08;104.45;;;26.27;;
69841;SDS011;57138;51.326;-0.068;2022-09-30T06:57:34;106.88;;;26.90;;
69841;SDS011;57138;51.326;-0.068;2022-09-30T07:00:00;108.90;;;25.85;;
69841;SDS011;57138;51.326;-0.068;2022-09-30T07:02:26;109.03;;;27.10;;
69841;SDS011;57138;51.326;-0.068;2022-09-30T07:04:53;103.25;;;26.85;;
69841;SDS011;57138;51.326;-0.068;2022-09-30T07:07:18;102.65;;;25.67;;
69841;SDS011;57138;51.326;-0.068;2022-09-30T07:09:46;113.18;;;28.15;;
69841;SDS011;57138;51.326;-0.068;2022-09-30T07:12:11;94.05;;;27.33;;
69841;SDS011;57138;51.326;-0.068;2022-09-30T07:14:36;97.72;;;28.25;;
69841;SDS011;57138;51.326;-0.068;2022-09-30T07:17:02;85.78;;;25.85;;
69841;SDS011;57138;51.326;-0.068;2022-09-30T07:19:28;88.32;;;27.85;;
69841;SDS011;57138;51.326;-0.068;2022-09-30T07:21:56;83.18;;;26.75;;
69841;SDS011;57138;51.326;-0.068;2022-09-30T07:24:41;77.97;;;25.95;;
69841;SDS011;57138;51.326;-0.068;2022-09-30T07:27:07;74.78;;;26.67;;
69841;SDS011;57138;51.326;-0.068;2022-09-30T07:29:33;65.22;;;25.52;;
69841;SDS011;57138;51.326;-0.068;2022-09-30T07:31:58;65.05;;;24.90;;
69841;SDS011;57138;51.326;-0.068;2022-09-30T07:34:24;54.92;;;24.30;;
69841;SDS011;57138;51.326;-0.068;2022-09-30T07:36:50;49.08;;;23.73;;
69841;SDS011;57138;51.326;-0.068;2022-09-30T07:39:16;41.40;;;20.70;;
69841;SDS011;57138;51.326;-0.068;2022-09-30T07:41:42;46.15;;;20.95;;
69841;SDS011;57138;51.326;-0.068;2022-09-30T07:44:10;30.60;;;16.95;;
69841;SDS011;57138;51.326;-0.068;2022-09-30T07:46:38;40.17;;;23.27;;
69841;SDS011;57138;51.326;-0.068;2022-09-30T07:49:04;35.13;;;20.73;;
69841;SDS011;57138;51.326;-0.068;2022-09-30T07:51:34;38.72;;;20.42;;
69841;SDS011;57138;51.326;-0.068;2022-09-30T07:54:03;35.13;;;19.63;;
69841;SDS011;57138;51.326;-0.068;2022-09-30T07:56:31;33.25;;;18.77;;
69841;SDS011;57138;51.326;-0.068;2022-09-30T07:59:00;30.48;;;18.83;;
69841;SDS011;57138;51.326;-0.068;2022-09-30T08:01:26;28.58;;;19.02;;
69841;SDS011;57138;51.326;-0.068;2022-09-30T08:03:55;29.35;;;18.83;;
69841;SDS011;57138;51.326;-0.068;2022-09-30T08:06:23;31.85;;;20.13;;
69841;SDS011;57138;51.326;-0.068;2022-09-30T08:08:51;29.83;;;16.88;;
69841;SDS011;57138;51.326;-0.068;2022-09-30T08:11:18;27.48;;;18.15;;
69841;SDS011;57138;51.326;-0.068;2022-09-30T08:13:48;29.45;;;17.05;;
69841;SDS011;57138;51.326;-0.068;2022-09-30T08:16:15;27.90;;;17.83;;
69841;SDS011;57138;51.326;-0.068;2022-09-30T08:18:40;28.30;;;17.23;;
69841;SDS011;57138;51.326;-0.068;2022-09-30T08:21:05;27.92;;;17.38;;
69841;SDS011;57138;51.326;-0.068;2022-09-30T08:23:31;25.13;;;16.08;;
69841;SDS011;57138;51.326;-0.068;2022-09-30T08:26:02;23.35;;;16.33;;
69841;SDS011;57138;51.326;-0.068;2022-09-30T08:28:32;27.15;;;16.13;;
69841;SDS011;57138;51.326;-0.068;2022-09-30T08:31:12;26.88;;;15.98;;
69841;SDS011;57138;51.326;-0.068;2022-09-30T08:33:39;25.58;;;15.18;;
69841;SDS011;57138;51.326;-0.068;2022-09-30T08:36:09;24.13;;;15.63;;
69841;SDS011;57138;51.326;-0.068;2022-09-30T08:38:45;24.20;;;15.13;;
69841;SDS011;57138;51.326;-0.068;2022-09-30T08:41:24;20.83;;;14.27;;
69841;SDS011;57138;51.326;-0.068;2022-09-30T08:52:18;21.10;;;12.07;;
69841;SDS011;57138;51.326;-0.068;2022-09-30T08:54:49;20.00;;;13.65;;
69841;SDS011;57138;51.326;-0.068;2022-09-30T08:57:18;20.75;;;12.80;;
69841;SDS011;57138;51.326;-0.068;2022-09-30T08:59:45;21.55;;;13.63;;
69841;SDS011;57138;51.326;-0.068;2022-09-30T09:04:41;19.52;;;13.02;;
69841;SDS011;57138;51.326;-0.068;2022-09-30T09:07:09;20.05;;;13.15;;
69841;SDS011;57138;51.326;-0.068;2022-09-30T09:12:50;18.27;;;12.68;;
69841;SDS011;57138;51.326;-0.068;2022-09-30T09:20:47;23.98;;;12.85;;
69841;SDS011;57138;51.326;-0.068;2022-09-30T09:23:19;22.17;;;12.23;;
69841;SDS011;57138;51.326;-0.068;2022-09-30T09:25:46;21.33;;;11.55;;
69841;SDS011;57138;51.326;-0.068;2022-09-30T09:28:21;18.48;;;10.02;;
69841;SDS011;57138;51.326;-0.068;2022-09-30T09:30:57;16.98;;;10.07;;
69841;SDS011;57138;51.326;-0.068;2022-09-30T09:33:28;17.23;;;9.30;;
69841;SDS011;57138;51.326;-0.068;2022-09-30T09:41:41;16.00;;;10.82;;
69841;SDS011;57138;51.326;-0.068;2022-09-30T09:47:22;20.02;;;10.85;;
69841;SDS011;57138;51.326;-0.068;2022-09-30T09:49:58;17.95;;;10.65;;
69841;SDS011;57138;51.326;-0.068;2022-09-30T09:58:01;18.08;;;10.63;;
69841;SDS011;57138;51.326;-0.068;2022-09-30T10:00:29;15.95;;;9.02;;
69841;SDS011;57138;51.326;-0.068;2022-09-30T10:03:21;14.43;;;8.52;;
69841;SDS011;57138;51.326;-0.068;2022-09-30T10:06:08;11.65;;;8.25;;
69841;SDS011;57138;51.326;-0.068;2022-09-30T10:08:58;13.18;;;8.80;;
69841;SDS011;57138;51.326;-0.068;2022-09-30T10:11:24;14.35;;;8.02;;
69841;SDS011;57138;51.326;-0.068;2022-09-30T10:13:59;11.18;;;7.57;;
69841;SDS011;57138;51.326;-0.068;2022-09-30T10:16:32;11.40;;;7.05;;
69841;SDS011;57138;51.326;-0.068;2022-09-30T10:19:21;11.55;;;7.15;;
69841;SDS011;57138;51.326;-0.068;2022-09-30T10:21:51;10.82;;;6.47;;
69841;SDS011;57138;51.326;-0.068;2022-09-30T10:24:36;13.73;;;7.50;;
69841;SDS011;57138;51.326;-0.068;2022-09-30T10:27:03;9.85;;;7.22;;
69841;SDS011;57138;51.326;-0.068;2022-09-30T10:29:48;14.77;;;8.40;;
69841;SDS011;57138;51.326;-0.068;2022-09-30T10:32:14;14.57;;;7.47;;
69841;SDS011;57138;51.326;-0.068;2022-09-30T10:34:41;11.10;;;6.55;;
69841;SDS011;57138;51.326;-0.068;2022-09-30T10:37:18;11.45;;;7.00;;
69841;SDS011;57138;51.326;-0.068;2022-09-30T10:42:32;26.93;;;7.83;;
69841;SDS011;57138;51.326;-0.068;2022-09-30T10:45:03;10.18;;;6.53;;
69841;SDS011;57138;51.326;-0.068;2022-09-30T10:47:31;10.63;;;6.65;;
69841;SDS011;57138;51.326;-0.068;2022-09-30T10:50:04;13.27;;;7.00;;
69841;SDS011;57138;51.326;-0.068;2022-09-30T10:52:32;10.20;;;6.32;;
69841;SDS011;57138;51.326;-0.068;2022-09-30T10:55:07;16.02;;;6.95;;
69841;SDS011;57138;51.326;-0.068;2022-09-30T10:57:54;9.93;;;6.20;;
69841;SDS011;57138;51.326;-0.068;2022-09-30T11:00:26;11.90;;;6.28;;
69841;SDS011;57138;51.326;-0.068;2022-09-30T11:02:59;10.35;;;6.53;;
69841;SDS011;57138;51.326;-0.068;2022-09-30T11:05:39;15.05;;;5.80;;
69841;SDS011;57138;51.326;-0.068;2022-09-30T11:08:21;10.00;;;5.95;;
69841;SDS011;57138;51.326;-0.068;2022-09-30T11:11:15;9.15;;;5.82;;
69841;SDS011;57138;51.326;-0.068;2022-09-30T11:13:59;9.05;;;5.20;;
69841;SDS011;57138;51.326;-0.068;2022-09-30T11:24:58;10.88;;;4.72;;
69841;SDS011;57138;51.326;-0.068;2022-09-30T11:27:48;6.97;;;4.38;;
69841;SDS011;57138;51.326;-0.068;2022-09-30T11:30:27;6.55;;;3.53;;
69841;SDS011;57138;51.326;-0.068;2022-09-30T11:41:42;7.82;;;3.22;;
69841;SDS011;57138;51.326;-0.068;2022-09-30T11:50:09;5.72;;;3.22;;
69841;SDS011;57138;51.326;-0.068;2022-09-30T11:52:52;7.55;;;3.05;;
69841;SDS011;57138;51.326;-0.068;2022-09-30T11:58:24;5.90;;;2.70;;
69841;SDS011;57138;51.326;-0.068;2022-09-30T12:00:57;18.45;;;7.05;;
69841;SDS011;57138;51.326;-0.068;2022-09-30T12:03:43;9.75;;;3.03;;
69841;SDS011;57138;51.326;-0.068;2022-09-30T12:06:32;33.70;;;7.82;;
69841;SDS011;57138;51.326;-0.068;2022-09-30T12:09:15;5.38;;;2.95;;
69841;SDS011;57138;51.326;-0.068;2022-09-30T12:11:58;16.75;;;3.85;;
69841;SDS011;57138;51.326;-0.068;2022-09-30T12:14:35;6.18;;;2.33;;
69841;SDS011;57138;51.326;-0.068;2022-09-30T12:17:11;11.70;;;4.32;;
69841;SDS011;57138;51.326;-0.068;2022-09-30T12:22:56;6.75;;;2.38;;
69841;SDS011;57138;51.326;-0.068;2022-09-30T12:25:45;7.50;;;2.17;;
69841;SDS011;57138;51.326;-0.068;2022-09-30T12:34:11;4.25;;;1.88;;
69841;SDS011;57138;51.326;-0.068;2022-09-30T12:47:51;8.90;;;2.65;;
69841;SDS011;57138;51.326;-0.068;2022-09-30T12:50:25;6.82;;;1.50;;
69841;SDS011;57138;51.326;-0.068;2022-09-30T12:52:53;3.97;;;1.67;;
69841;SDS011;57138;51.326;-0.068;2022-09-30T12:55:29;4.05;;;1.50;;
69841;SDS011;57138;51.326;-0.068;2022-09-30T12:58:02;3.85;;;1.73;;
69841;SDS011;57138;51.326;-0.068;2022-09-30T13:00:30;4.72;;;1.38;;
69841;SDS011;57138;51.326;-0.068;2022-09-30T13:03:03;3.13;;;1.33;;
69841;SDS011;57138;51.326;-0.068;2022-09-30T13:10:32;4.78;;;1.83;;
69841;SDS011;57138;51.326;-0.068;2022-09-30T13:15:48;5.53;;;2.40;;
69841;SDS011;57138;51.326;-0.068;2022-09-30T13:44:52;6.80;;;2.40;;
69841;SDS011;57138;51.326;-0.068;2022-09-30T13:47:28;6.43;;;2.50;;
69841;SDS011;57138;51.326;-0.068;2022-09-30T13:52:38;7.50;;;2.45;;
69841;SDS011;57138;51.326;-0.068;2022-09-30T13:55:30;17.13;;;5.75;;
69841;SDS011;57138;51.326;-0.068;2022-09-30T14:00:56;11.88;;;2.85;;
69841;SDS011;57138;51.326;-0.068;2022-09-30T14:20:07;11.20;;;2.38;;
69841;SDS011;57138;51.326;-0.068;2022-09-30T14:22:37;9.85;;;2.17;;
69841;SDS011;57138;51.326;-0.068;2022-09-30T14:25:13;6.65;;;2.47;;
69841;SDS011;57138;51.326;-0.068;2022-09-30T14:27:47;6.82;;;2.25;;
69841;SDS011;57138;51.326;-0.068;2022-09-30T14:30:38;5.78;;;2.30;;
69841;SDS011;57138;51.326;-0.068;2022-09-30T14:33:17;6.75;;;1.92;;
69841;SDS011;57138;51.326;-0.068;2022-09-30T14:35:51;6.68;;;2.08;;
69841;SDS011;57138;51.326;-0.068;2022-09-30T14:38:22;9.35;;;2.28;;
69841;SDS011;57138;51.326;-0.068;2022-09-30T14:40:55;8.07;;;2.30;;
69841;SDS011;57138;51.326;-0.068;2022-09-30T14:43:32;13.60;;;2.10;;
69841;SDS011;57138;51.326;-0.068;2022-09-30T14:46:20;7.20;;;2.10;;
69841;SDS011;57138;51.326;-0.068;2022-09-30T14:48:54;10.30;;;2.08;;
69841;SDS011;57138;51.326;-0.068;2022-09-30T14:51:26;9.82;;;3.47;;
69841;SDS011;57138;51.326;-0.068;2022-09-30T14:53:54;10.52;;;2.67;;
69841;SDS011;57138;51.326;-0.068;2022-09-30T14:56:32;7.95;;;2.17;;
69841;SDS011;57138;51.326;-0.068;2022-09-30T14:58:59;6.63;;;2.28;;
69841;SDS011;57138;51.326;-0.068;2022-09-30T15:01:38;8.35;;;2.58;;
69841;SDS011;57138;51.326;-0.068;2022-09-30T15:04:12;9.48;;;2.67;;
69841;SDS011;57138;51.326;-0.068;2022-09-30T15:06:45;9.85;;;3.40;;
69841;SDS011;57138;51.326;-0.068;2022-09-30T15:09:14;7.63;;;3.15;;
69841;SDS011;57138;51.326;-0.068;2022-09-30T15:11:51;8.20;;;2.20;;
69841;SDS011;57138;51.326;-0.068;2022-09-30T15:14:18;11.13;;;2.63;;
69841;SDS011;57138;51.326;-0.068;2022-09-30T15:16:46;9.88;;;3.13;;
69841;SDS011;57138;51.326;-0.068;2022-09-30T15:19:25;9.68;;;2.40;;
69841;SDS011;57138;51.326;-0.068;2022-09-30T15:21:54;12.52;;;2.92;;
69841;SDS011;57138;51.326;-0.068;2022-09-30T15:24:22;7.88;;;2.90;;
69841;SDS011;57138;51.326;-0.068;2022-09-30T15:26:51;7.03;;;2.90;;
69841;SDS011;57138;51.326;-0.068;2022-09-30T15:29:18;9.80;;;3.33;;
69841;SDS011;57138;51.326;-0.068;2022-09-30T15:31:48;11.88;;;3.88;;
69841;SDS011;57138;51.326;-0.068;2022-09-30T15:34:19;15.65;;;3.50;;
69841;SDS011;57138;51.326;-0.068;2022-09-30T15:36:47;11.27;;;2.92;;
69841;SDS011;57138;51.326;-0.068;2022-09-30T15:39:21;10.50;;;3.42;;
69841;SDS011;57138;51.326;-0.068;2022-09-30T15:42:09;11.82;;;3.00;;
69841;SDS011;57138;51.326;-0.068;2022-09-30T15:44:37;16.38;;;3.65;;
69841;SDS011;57138;51.326;-0.068;2022-09-30T15:47:04;15.98;;;2.97;;
69841;SDS011;57138;51.326;-0.068;2022-09-30T15:52:18;12.82;;;3.83;;
69841;SDS011;57138;51.326;-0.068;2022-09-30T15:54:52;15.80;;;3.83;;
69841;SDS011;57138;51.326;-0.068;2022-09-30T16:00:05;13.30;;;3.13;;
69841;SDS011;57138;51.326;-0.068;2022-09-30T16:02:32;20.48;;;3.88;;
69841;SDS011;57138;51.326;-0.068;2022-09-30T16:04:59;13.82;;;3.15;;
69841;SDS011;57138;51.326;-0.068;2022-09-30T16:07:26;11.55;;;3.45;;
69841;SDS011;57138;51.326;-0.068;2022-09-30T16:09:55;14.07;;;4.32;;
69841;SDS011;57138;51.326;-0.068;2022-09-30T16:12:24;10.13;;;2.88;;
69841;SDS011;57138;51.326;-0.068;2022-09-30T16:14:58;11.18;;;2.97;;
69841;SDS011;57138;51.326;-0.068;2022-09-30T16:17:32;9.80;;;2.70;;
69841;SDS011;57138;51.326;-0.068;2022-09-30T16:20:02;11.10;;;1.88;;
69841;SDS011;57138;51.326;-0.068;2022-09-30T16:25:17;15.57;;;2.45;;
69841;SDS011;57138;51.326;-0.068;2022-09-30T16:27:54;14.80;;;2.58;;
69841;SDS011;57138;51.326;-0.068;2022-09-30T16:30:24;12.50;;;2.60;;
69841;SDS011;57138;51.326;-0.068;2022-09-30T16:32:51;13.65;;;3.88;;
69841;SDS011;57138;51.326;-0.068;2022-09-30T16:35:20;12.77;;;2.40;;
69841;SDS011;57138;51.326;-0.068;2022-09-30T16:37:48;13.93;;;2.65;;
69841;SDS011;57138;51.326;-0.068;2022-09-30T16:40:22;10.20;;;2.35;;
69841;SDS011;57138;51.326;-0.068;2022-09-30T16:42:49;16.40;;;2.70;;
69841;SDS011;57138;51.326;-0.068;2022-09-30T16:45:15;11.27;;;2.28;;
69841;SDS011;57138;51.326;-0.068;2022-09-30T16:47:42;16.80;;;2.80;;
69841;SDS011;57138;51.326;-0.068;2022-09-30T16:52:46;12.23;;;2.38;;
69841;SDS011;57138;51.326;-0.068;2022-09-30T16:55:12;14.07;;;2.55;;
69841;SDS011;57138;51.326;-0.068;2022-09-30T16:57:37;20.38;;;3.47;;
69841;SDS011;57138;51.326;-0.068;2022-09-30T17:00:04;18.15;;;2.42;;
69841;SDS011;57138;51.326;-0.068;2022-09-30T17:02:31;14.10;;;2.17;;
69841;SDS011;57138;51.326;-0.068;2022-09-30T17:04:56;19.25;;;3.70;;
69841;SDS011;57138;51.326;-0.068;2022-09-30T17:07:21;21.25;;;3.30;;
69841;SDS011;57138;51.326;-0.068;2022-09-30T17:09:47;19.73;;;4.03;;
69841;SDS011;57138;51.326;-0.068;2022-09-30T17:12:13;10.00;;;2.65;;
69841;SDS011;57138;51.326;-0.068;2022-09-30T17:14:39;15.73;;;2.13;;
69841;SDS011;57138;51.326;-0.068;2022-09-30T17:17:07;13.93;;;2.63;;
69841;SDS011;57138;51.326;-0.068;2022-09-30T17:19:33;14.18;;;3.70;;
69841;SDS011;57138;51.326;-0.068;2022-09-30T17:21:59;19.55;;;2.97;;
69841;SDS011;57138;51.326;-0.068;2022-09-30T17:24:28;23.48;;;2.30;;
69841;SDS011;57138;51.326;-0.068;2022-09-30T17:26:54;17.13;;;2.20;;
69841;SDS011;57138;51.326;-0.068;2022-09-30T17:29:20;15.70;;;2.55;;
69841;SDS011;57138;51.326;-0.068;2022-09-30T17:31:45;18.02;;;3.83;;
69841;SDS011;57138;51.326;-0.068;2022-09-30T17:34:10;16.98;;;2.60;;
69841;SDS011;57138;51.326;-0.068;2022-09-30T17:36:37;13.05;;;2.30;;
69841;SDS011;57138;51.326;-0.068;2022-09-30T17:39:02;13.70;;;2.55;;
69841;SDS011;57138;51.326;-0.068;2022-09-30T17:41:29;14.73;;;3.58;;
69841;SDS011;57138;51.326;-0.068;2022-09-30T17:44:13;15.85;;;2.65;;
69841;SDS011;57138;51.326;-0.068;2022-09-30T17:46:39;12.10;;;2.20;;
69841;SDS011;57138;51.326;-0.068;2022-09-30T17:49:07;16.15;;;2.90;;
69841;SDS011;57138;51.326;-0.068;2022-09-30T17:51:33;13.18;;;2.03;;
69841;SDS011;57138;51.326;-0.068;2022-09-30T17:54:02;13.75;;;2.60;;
69841;SDS011;57138;51.326;-0.068;2022-09-30T17:56:31;16.02;;;2.80;;
69841;SDS011;57138;51.326;-0.068;2022-09-30T17:58:57;6.90;;;1.65;;
69841;SDS011;57138;51.326;-0.068;2022-09-30T18:01:25;12.75;;;2.85;;
69841;SDS011;57138;51.326;-0.068;2022-09-30T18:03:56;16.55;;;2.58;;
69841;SDS011;57138;51.326;-0.068;2022-09-30T18:06:22;8.80;;;1.70;;